createdAt,value
2018-06-08T00:01:52.029Z,45.07
2018-06-08T00:04:20.073Z,47.70
2018-06-08T00:06:48.109Z,47.87
2018-06-08T00:09:16.119Z,49.90
2018-06-08T00:11:44.180Z,49.00
2018-06-08T00:14:12.189Z,46.67
2018-06-08T00:16:40.199Z,52.80
2018-06-08T00:19:08.242Z,48.57
2018-06-08T00:21:36.525Z,51.57
2018-06-08T00:24:04.574Z,48.93
2018-06-08T00:26:32.605Z,47.23
2018-06-08T00:29:00.637Z,47.57
2018-06-08T00:31:28.686Z,50.10
2018-06-08T00:33:56.792Z,51.97
2018-06-08T00:36:24.837Z,48.10
2018-06-08T00:38:52.856Z,51.30
2018-06-08T00:41:20.950Z,54.93
2018-06-08T00:43:49.235Z,52.30
2018-06-08T00:46:17.254Z,54.10
2018-06-08T00:48:45.298Z,55.23
2018-06-08T00:51:13.341Z,43.07
2018-06-08T00:53:41.768Z,54.07
2018-06-08T00:56:15.601Z,49.30
2018-06-08T00:58:43.665Z,54.20
2018-06-08T01:01:12.583Z,56.10
2018-06-08T01:03:40.954Z,51.60
2018-06-08T01:06:09.046Z,60.00
2018-06-08T01:08:37.168Z,59.43
2018-06-08T01:11:05.238Z,56.07
2018-06-08T01:13:33.321Z,54.47
2018-06-08T01:16:01.344Z,54.80
2018-06-08T01:18:29.734Z,55.00
2018-06-08T01:20:57.769Z,57.97
2018-06-08T01:23:25.772Z,61.67
2018-06-08T01:25:53.793Z,68.13
2018-06-08T01:28:21.841Z,59.57
2018-06-08T01:30:49.849Z,58.17
2018-06-08T01:33:18.238Z,66.70
2018-06-08T01:35:46.257Z,64.47
2018-06-08T01:38:14.368Z,64.23
2018-06-08T01:40:42.641Z,60.27
2018-06-08T01:43:10.705Z,63.73
2018-06-08T01:45:38.717Z,64.50
2018-06-08T01:48:07.018Z,61.63
2018-06-08T01:50:35.065Z,61.53
2018-06-08T01:53:03.141Z,64.87
2018-06-08T01:55:31.213Z,60.90
2018-06-08T01:57:59.247Z,58.47
2018-06-08T02:00:27.246Z,69.17
2018-06-08T02:02:55.336Z,59.23
2018-06-08T02:05:23.372Z,61.40
2018-06-08T02:07:51.377Z,72.57
2018-06-08T02:10:19.838Z,71.70
2018-06-08T02:12:47.850Z,65.90
2018-06-08T02:15:15.956Z,66.73
2018-06-08T02:17:44.009Z,70.60
2018-06-08T02:20:12.052Z,66.63
2018-06-08T02:22:40.059Z,69.03
2018-06-08T02:25:08.078Z,67.40
2018-06-08T02:27:36.096Z,67.27
2018-06-08T02:30:04.200Z,64.30
2018-06-08T02:32:32.229Z,61.47
2018-06-08T02:35:00.257Z,67.63
2018-06-08T02:37:28.309Z,67.33
2018-06-08T02:39:56.352Z,61.60
2018-06-08T02:42:24.358Z,61.90
2018-06-08T02:44:52.371Z,68.50
2018-06-08T02:47:20.450Z,63.43
2018-06-08T02:49:48.509Z,66.70
2018-06-08T02:52:16.642Z,65.00
2018-06-08T02:54:44.803Z,64.97
2018-06-08T02:57:12.825Z,61.33
2018-06-08T02:59:40.847Z,66.87
2018-06-08T03:02:08.876Z,60.00
2018-06-08T03:04:36.909Z,65.53
2018-06-08T03:07:05.195Z,63.53
2018-06-08T03:09:33.210Z,62.47
2018-06-08T03:12:07.719Z,65.13
2018-06-08T03:14:36.246Z,65.77
2018-06-08T03:17:04.302Z,71.33
2018-06-08T03:19:32.315Z,64.03
2018-06-08T03:22:00.665Z,71.83
2018-06-08T03:24:28.717Z,70.63
2018-06-08T03:26:56.761Z,70.27
2018-06-08T03:29:24.857Z,74.73
2018-06-08T03:31:52.864Z,68.53
2018-06-08T03:34:20.873Z,71.90
2018-06-08T03:36:48.910Z,63.27
2018-06-08T03:39:16.936Z,68.80
2018-06-08T03:41:45.012Z,72.87
2018-06-08T03:44:13.117Z,72.63
2018-06-08T03:46:41.153Z,76.90
2018-06-08T03:49:09.200Z,79.40
2018-06-08T03:51:37.559Z,79.40
2018-06-08T03:54:05.593Z,79.53
2018-06-08T03:56:33.661Z,76.80
2018-06-08T03:59:01.710Z,76.30
2018-06-08T04:01:29.777Z,84.10
2018-06-08T04:03:57.816Z,85.10
2018-06-08T04:06:25.844Z,78.47
2018-06-08T04:08:53.905Z,82.53
2018-06-08T04:11:22.088Z,88.13
2018-06-08T04:13:50.497Z,87.60
2018-06-08T04:16:18.500Z,88.03
2018-06-08T04:18:46.533Z,85.70
2018-06-08T04:21:14.881Z,95.30
2018-06-08T04:23:42.937Z,94.83
2018-06-08T04:26:11.077Z,95.57
2018-06-08T04:28:39.181Z,99.20
2018-06-08T04:31:07.217Z,95.97
2018-06-08T04:33:35.232Z,100.47
2018-06-08T04:36:03.304Z,102.37
2018-06-08T04:38:31.404Z,99.00
2018-06-08T04:40:59.518Z,106.50
2018-06-08T04:43:27.559Z,109.60
2018-06-08T04:45:55.631Z,104.53
2018-06-08T04:48:23.676Z,108.67
2018-06-08T04:50:51.706Z,106.70
2018-06-08T04:53:19.764Z,116.53
2018-06-08T04:55:47.785Z,112.87
2018-06-08T04:58:15.976Z,104.77
2018-06-08T05:00:44.079Z,109.37
2018-06-08T05:03:12.097Z,112.37
2018-06-08T05:05:40.425Z,104.57
2018-06-08T05:08:08.445Z,114.03
2018-06-08T05:10:36.491Z,100.87
2018-06-08T05:13:04.919Z,92.47
2018-06-08T05:15:32.996Z,101.00
2018-06-08T05:18:01.065Z,97.60
2018-06-08T05:20:29.101Z,96.00
2018-06-08T05:22:57.113Z,94.37
2018-06-08T05:25:25.202Z,104.67
2018-06-08T05:27:53.268Z,103.20
2018-06-08T05:30:23.211Z,87.40
2018-06-08T05:32:51.260Z,95.37
2018-06-08T05:35:19.676Z,91.83
2018-06-08T05:37:47.713Z,95.83
2018-06-08T05:40:15.729Z,90.87
2018-06-08T05:42:44.073Z,87.13
2018-06-08T05:45:12.155Z,83.60
2018-06-08T05:47:40.176Z,85.00
2018-06-08T05:50:08.232Z,86.30
2018-06-08T05:52:36.245Z,98.93
2018-06-08T05:55:04.381Z,86.27
2018-06-08T05:57:32.405Z,89.83
2018-06-08T06:00:00.492Z,91.20
2018-06-08T06:02:28.541Z,89.17
2018-06-08T06:04:56.612Z,90.93
2018-06-08T06:07:24.713Z,85.50
2018-06-08T06:09:52.702Z,82.10
2018-06-08T06:12:21.081Z,93.33
2018-06-08T06:14:49.157Z,82.07
2018-06-08T06:17:17.244Z,91.87
2018-06-08T06:19:45.277Z,83.70
2018-06-08T06:22:13.294Z,92.23
2018-06-08T06:24:41.346Z,87.13
2018-06-08T06:27:09.437Z,90.90
2018-06-08T06:29:37.458Z,89.23
2018-06-08T06:32:05.581Z,89.60
2018-06-08T06:34:33.741Z,83.83
2018-06-08T06:37:01.835Z,90.87
2018-06-08T06:39:29.886Z,94.13
2018-06-08T06:41:57.958Z,82.33
2018-06-08T06:44:26.030Z,92.63
2018-06-08T06:46:54.068Z,86.63
2018-06-08T06:49:22.139Z,86.40
2018-06-08T06:51:50.193Z,85.23
2018-06-08T06:54:18.281Z,81.80
2018-06-08T06:56:46.390Z,83.50
2018-06-08T06:59:14.509Z,77.10
2018-06-08T07:01:42.622Z,78.77
2018-06-08T07:04:10.648Z,83.00
2018-06-08T07:06:38.789Z,74.43
2018-06-08T07:09:07.909Z,73.30
2018-06-08T07:11:35.929Z,75.73
2018-06-08T07:14:04.042Z,70.40
2018-06-08T07:16:32.062Z,72.70
2018-06-08T07:19:00.101Z,72.20
2018-06-08T07:21:28.147Z,73.73
2018-06-08T07:23:56.160Z,71.13
2018-06-08T07:26:24.184Z,65.80
2018-06-08T07:28:52.266Z,58.23
2018-06-08T07:31:20.314Z,61.83
2018-06-08T07:33:48.397Z,55.90
2018-06-08T07:36:16.459Z,55.20
2018-06-08T07:38:44.602Z,54.50
2018-06-08T07:41:13.386Z,55.83
2018-06-08T07:43:41.462Z,50.10
2018-06-08T07:46:09.599Z,50.50
2018-06-08T07:48:37.653Z,49.57
2018-06-08T07:51:05.869Z,50.87
2018-06-08T07:53:33.929Z,52.43
2018-06-08T07:56:01.979Z,50.70
2018-06-08T07:58:30.053Z,48.20
2018-06-08T08:00:58.123Z,52.00
2018-06-08T08:03:26.525Z,59.50
2018-06-08T08:05:54.648Z,60.63
2018-06-08T08:08:23.396Z,64.57
2018-06-08T08:10:51.873Z,60.87
2018-06-08T08:13:19.940Z,58.70
2018-06-08T08:15:47.945Z,66.77
2018-06-08T08:18:15.981Z,57.77
2018-06-08T08:20:44.131Z,68.30
2018-06-08T08:23:12.213Z,62.60
2018-06-08T08:25:40.254Z,72.77
2018-06-08T08:28:08.265Z,68.80
2018-06-08T08:30:36.410Z,65.07
2018-06-08T08:33:04.505Z,64.07
2018-06-08T08:35:32.547Z,65.10
2018-06-08T08:38:00.648Z,60.73
2018-06-08T08:40:28.714Z,61.60
2018-06-08T08:42:56.840Z,73.00
2018-06-08T08:45:24.869Z,61.60
2018-06-08T08:47:52.933Z,63.20
2018-06-08T08:50:21.065Z,61.60
2018-06-08T08:52:49.120Z,62.73
2018-06-08T08:55:17.136Z,60.50
2018-06-08T08:57:45.193Z,65.17
2018-06-08T09:00:13.217Z,62.47
2018-06-08T09:02:41.543Z,63.53
2018-06-08T09:05:09.579Z,60.63
2018-06-08T09:07:37.577Z,64.07
2018-06-08T09:10:05.885Z,57.47
2018-06-08T09:12:33.902Z,59.97
2018-06-08T09:15:01.936Z,63.97
2018-06-08T09:17:30.377Z,56.20
2018-06-08T09:19:58.418Z,57.20
2018-06-08T09:22:33.251Z,57.83
2018-06-08T09:25:01.309Z,54.10
2018-06-08T09:27:29.355Z,58.70
2018-06-08T09:29:57.405Z,58.20
2018-06-08T09:32:25.435Z,54.07
2018-06-08T09:34:53.514Z,54.00
2018-06-08T09:37:21.546Z,54.77
2018-06-08T09:39:49.562Z,54.23
2018-06-08T09:42:17.569Z,55.23
2018-06-08T09:44:45.712Z,51.00
2018-06-08T09:47:13.773Z,52.97
2018-06-08T09:49:41.831Z,52.20
2018-06-08T09:52:09.866Z,55.23
2018-06-08T09:54:37.946Z,54.80
2018-06-08T09:57:05.994Z,53.10
2018-06-08T09:59:34.010Z,50.57
2018-06-08T10:02:02.081Z,51.47
2018-06-08T10:04:30.134Z,45.80
2018-06-08T10:06:58.169Z,43.50
2018-06-08T10:09:26.169Z,41.83
2018-06-08T10:11:54.174Z,43.00
2018-06-08T10:14:22.489Z,43.80
2018-06-08T10:16:50.502Z,40.47
2018-06-08T10:19:18.549Z,47.77
2018-06-08T10:21:46.993Z,42.07
2018-06-08T10:24:15.040Z,41.80
2018-06-08T10:26:43.066Z,46.73
2018-06-08T10:29:11.178Z,40.80
2018-06-08T10:31:39.193Z,40.67
2018-06-08T10:34:07.308Z,41.40
2018-06-08T10:36:35.556Z,44.23
2018-06-08T10:39:04.384Z,41.17
2018-06-08T10:41:32.389Z,38.50
2018-06-08T10:44:00.938Z,38.77
2018-06-08T10:46:29.104Z,40.87
2018-06-08T10:48:57.241Z,45.67
2018-06-08T10:51:25.382Z,44.10
2018-06-08T10:53:53.449Z,46.70
2018-06-08T10:56:21.559Z,48.07
2018-06-08T10:58:49.570Z,44.20
2018-06-08T11:01:17.608Z,45.17
2018-06-08T11:03:45.762Z,45.00
2018-06-08T11:06:14.452Z,42.27
2018-06-08T11:08:42.505Z,44.97
2018-06-08T11:11:10.554Z,44.33
2018-06-08T11:13:38.634Z,39.30
2018-06-08T11:16:06.685Z,37.53
2018-06-08T11:18:34.789Z,38.93
2018-06-08T11:21:02.817Z,37.60
2018-06-08T11:23:30.861Z,41.20
2018-06-08T11:25:58.877Z,42.87
2018-06-08T11:28:26.905Z,44.17
2018-06-08T11:30:54.940Z,39.30
2018-06-08T11:33:22.979Z,38.93
2018-06-08T11:35:51.094Z,38.27
2018-06-08T11:38:19.149Z,40.70
2018-06-08T11:40:47.230Z,38.93
2018-06-08T11:43:15.567Z,38.93
2018-06-08T11:45:43.712Z,38.50
2018-06-08T11:48:11.749Z,40.73
2018-06-08T11:50:40.057Z,38.90
2018-06-08T11:53:08.166Z,42.90
2018-06-08T11:55:36.246Z,43.13
2018-06-08T11:58:04.617Z,40.13
2018-06-08T12:00:32.628Z,38.70
2018-06-08T12:03:00.646Z,40.87
2018-06-08T12:05:28.773Z,43.40
2018-06-08T12:07:56.836Z,41.20
2018-06-08T12:10:24.885Z,37.87
2018-06-08T12:12:52.913Z,35.73
2018-06-08T12:15:20.977Z,35.53
2018-06-08T12:17:48.978Z,35.73
2018-06-08T12:20:17.017Z,37.60
2018-06-08T12:22:45.026Z,37.50
2018-06-08T12:25:13.067Z,34.20
2018-06-08T12:27:41.103Z,39.50
2018-06-08T12:30:09.124Z,37.77
2018-06-08T12:32:37.238Z,39.63
2018-06-08T12:35:05.324Z,42.20
2018-06-08T12:37:33.401Z,41.57
2018-06-08T12:40:01.396Z,35.10
2018-06-08T12:42:29.421Z,37.97
2018-06-08T12:44:57.461Z,39.00
2018-06-08T12:47:25.557Z,33.27
2018-06-08T12:49:53.641Z,29.73
2018-06-08T12:52:21.680Z,25.87
2018-06-08T12:54:49.701Z,34.50
2018-06-08T12:57:18.113Z,32.30
2018-06-08T12:59:46.133Z,23.07
2018-06-08T13:02:14.165Z,21.80
2018-06-08T13:04:42.525Z,19.80
2018-06-08T13:07:10.540Z,19.83
2018-06-08T13:09:38.593Z,22.60
2018-06-08T13:12:06.677Z,24.13
2018-06-08T13:14:34.752Z,24.43
2018-06-08T13:17:02.811Z,23.67
2018-06-08T13:19:30.826Z,23.87
2018-06-08T13:21:58.850Z,24.00
2018-06-08T13:24:26.971Z,22.53
2018-06-08T13:26:55.034Z,24.47
2018-06-08T13:29:23.112Z,25.70
2018-06-08T13:31:51.146Z,27.63
2018-06-08T13:34:19.313Z,28.80
2018-06-08T13:36:47.324Z,25.47
2018-06-08T13:39:15.429Z,26.63
2018-06-08T13:41:43.451Z,22.37
2018-06-08T13:44:11.539Z,22.10
2018-06-08T13:46:44.185Z,23.43
2018-06-08T13:49:12.220Z,24.47
2018-06-08T13:51:40.277Z,23.33
2018-06-08T13:54:08.566Z,24.20
2018-06-08T13:56:36.570Z,25.13
2018-06-08T13:59:04.891Z,24.17
2018-06-08T14:01:32.957Z,22.10
2018-06-08T14:04:01.220Z,22.17
2018-06-08T14:06:29.253Z,21.73
2018-06-08T14:08:57.368Z,20.27
2018-06-08T14:11:25.381Z,22.13
2018-06-08T14:13:53.401Z,22.60
2018-06-08T14:16:21.474Z,21.90
2018-06-08T14:18:49.491Z,24.57
2018-06-08T14:21:17.521Z,22.23
2018-06-08T14:23:45.637Z,21.50
2018-06-08T14:26:14.154Z,22.50
2018-06-08T14:28:42.294Z,23.27
2018-06-08T14:31:10.621Z,20.00
2018-06-08T14:33:38.681Z,19.97
2018-06-08T14:36:06.691Z,18.80
2018-06-08T14:38:35.027Z,18.80
2018-06-08T14:41:03.024Z,17.63
2018-06-08T14:43:31.043Z,16.83
2018-06-08T14:45:59.353Z,17.63
2018-06-08T14:48:27.425Z,17.20
2018-06-08T14:50:55.455Z,17.70
2018-06-08T14:53:23.830Z,16.53
2018-06-08T14:55:51.861Z,17.03
2018-06-08T14:58:19.875Z,17.27
2018-06-08T15:00:47.933Z,18.27
2018-06-08T15:03:16.169Z,18.40
2018-06-08T15:05:44.229Z,20.23
2018-06-08T15:08:12.268Z,19.83
2018-06-08T15:10:40.284Z,20.43
2018-06-08T15:13:08.397Z,20.10
2018-06-08T15:15:36.444Z,20.10
2018-06-08T15:18:04.521Z,21.30
2018-06-08T15:20:32.541Z,20.77
2018-06-08T15:23:00.644Z,21.87
2018-06-08T15:25:28.674Z,22.33
2018-06-08T15:27:56.729Z,21.43
2018-06-08T15:30:24.746Z,22.20
2018-06-08T15:32:52.761Z,24.57
2018-06-08T15:35:20.808Z,24.23
2018-06-08T15:37:48.826Z,21.63
2018-06-08T15:40:16.847Z,18.00
2018-06-08T15:42:44.849Z,17.43
2018-06-08T15:45:12.909Z,18.50
2018-06-08T15:47:41.740Z,20.43
2018-06-08T15:50:09.777Z,21.53
2018-06-08T15:52:37.797Z,21.47
2018-06-08T15:55:05.909Z,22.03
2018-06-08T15:57:33.912Z,22.20
2018-06-08T16:00:01.946Z,21.67
2018-06-08T16:02:29.993Z,23.17
2018-06-08T16:04:58.053Z,19.80
2018-06-08T16:07:26.155Z,19.80
2018-06-08T16:09:54.221Z,19.23
2018-06-08T16:12:22.223Z,21.50
2018-06-08T16:14:50.337Z,20.80
2018-06-08T16:17:18.468Z,21.37
2018-06-08T16:19:46.481Z,19.80
2018-06-08T16:22:14.592Z,19.10
2018-06-08T16:24:42.667Z,19.20
2018-06-08T16:27:10.760Z,18.70
2018-06-08T16:29:38.802Z,19.27
2018-06-08T16:32:06.890Z,19.77
2018-06-08T16:34:34.909Z,21.43
2018-06-08T16:37:02.947Z,20.63
2018-06-08T16:39:30.974Z,22.00
2018-06-08T16:41:59.043Z,22.20
2018-06-08T16:44:27.081Z,22.13
2018-06-08T16:46:55.224Z,22.30
2018-06-08T16:49:23.444Z,22.00
2018-06-08T16:51:51.586Z,23.47
2018-06-08T16:54:19.647Z,21.40
2018-06-08T16:56:47.692Z,22.70
2018-06-08T16:59:15.818Z,20.43
2018-06-08T17:01:43.925Z,22.87
2018-06-08T17:04:11.994Z,23.63
2018-06-08T17:06:40.286Z,24.47
2018-06-08T17:09:08.338Z,21.87
2018-06-08T17:11:36.378Z,22.90
2018-06-08T17:14:04.549Z,23.10
2018-06-08T17:16:32.597Z,22.13
2018-06-08T17:19:00.639Z,23.30
2018-06-08T17:21:29.013Z,23.10
2018-06-08T17:23:57.153Z,22.63
2018-06-08T17:26:25.166Z,28.60
2018-06-08T17:28:53.258Z,25.90
2018-06-08T17:31:21.506Z,24.40
2018-06-08T17:33:49.637Z,24.17
2018-06-08T17:36:17.721Z,22.67
2018-06-08T17:38:45.746Z,24.10
2018-06-08T17:41:13.767Z,24.93
2018-06-08T17:43:41.864Z,23.13
2018-06-08T17:46:09.980Z,25.03
2018-06-08T17:48:38.053Z,23.27
2018-06-08T17:51:06.287Z,21.40
2018-06-08T17:53:34.286Z,22.67
2018-06-08T17:56:02.298Z,23.43
2018-06-08T17:58:30.409Z,23.60
2018-06-08T18:00:58.437Z,22.93
2018-06-08T18:03:26.465Z,22.37
2018-06-08T18:05:54.599Z,24.10
2018-06-08T18:08:22.690Z,27.10
2018-06-08T18:10:50.745Z,26.60
2018-06-08T18:13:18.781Z,26.90
2018-06-08T18:15:46.904Z,29.33
2018-06-08T18:18:14.990Z,25.67
2018-06-08T18:20:43.146Z,27.50
2018-06-08T18:23:11.195Z,27.10
2018-06-08T18:25:39.326Z,26.73
2018-06-08T18:28:07.366Z,28.03
2018-06-08T18:30:35.381Z,24.80
2018-06-08T18:33:03.487Z,24.30
2018-06-08T18:35:31.517Z,21.93
2018-06-08T18:37:59.646Z,19.80
2018-06-08T18:40:27.705Z,19.50
2018-06-08T18:42:55.765Z,19.50
2018-06-08T18:45:23.832Z,19.87
2018-06-08T18:47:51.909Z,19.57
2018-06-08T18:50:19.945Z,25.23
2018-06-08T18:52:47.989Z,22.83
2018-06-08T18:55:16.037Z,22.27
2018-06-08T18:57:44.152Z,25.20
2018-06-08T19:00:12.229Z,20.30
2018-06-08T19:02:40.309Z,24.30
2018-06-08T19:05:08.456Z,21.13
2018-06-08T19:07:36.529Z,21.33
2018-06-08T19:10:04.823Z,19.03
2018-06-08T19:12:32.947Z,18.50
2018-06-08T19:15:01.087Z,20.60
2018-06-08T19:17:29.110Z,21.83
2018-06-08T19:19:57.126Z,19.57
2018-06-08T19:22:25.181Z,16.33
2018-06-08T19:24:53.228Z,18.10
2018-06-08T19:27:21.265Z,16.30
2018-06-08T19:29:49.285Z,20.97
2018-06-08T19:32:17.361Z,19.27
2018-06-08T19:34:45.416Z,18.03
2018-06-08T19:37:13.509Z,19.17
2018-06-08T19:39:41.529Z,20.47
2018-06-08T19:42:09.595Z,21.40
2018-06-08T19:44:37.665Z,21.13
2018-06-08T19:47:05.701Z,20.70
2018-06-08T19:49:33.793Z,21.63
2018-06-08T19:52:02.541Z,22.50
2018-06-08T19:54:30.614Z,23.07
2018-06-08T19:56:58.715Z,22.77
2018-06-08T19:59:26.815Z,27.93
2018-06-08T20:01:54.865Z,21.17
2018-06-08T20:04:22.901Z,26.90
2018-06-08T20:06:50.971Z,29.33
2018-06-08T20:09:19.058Z,23.83
2018-06-08T20:11:47.440Z,24.07
2018-06-08T20:14:15.538Z,25.90
2018-06-08T20:16:43.738Z,28.37
2018-06-08T20:19:11.814Z,29.60
2018-06-08T20:21:40.703Z,28.03
2018-06-08T20:24:08.730Z,30.63
2018-06-08T20:26:36.777Z,28.50
2018-06-08T20:29:05.057Z,29.30
2018-06-08T20:31:33.112Z,28.73
2018-06-08T20:34:01.181Z,26.90
2018-06-08T20:36:29.194Z,29.53
2018-06-08T20:38:57.228Z,29.50
2018-06-08T20:41:25.580Z,26.60
2018-06-08T20:43:54.085Z,28.57
2018-06-08T20:46:22.129Z,28.70
2018-06-08T20:48:50.201Z,29.83
2018-06-08T20:51:18.621Z,30.33
2018-06-08T20:53:46.673Z,30.00
2018-06-08T20:56:15.098Z,28.63
2018-06-08T20:58:43.156Z,31.90
2018-06-08T21:01:11.185Z,30.93
2018-06-08T21:03:39.293Z,32.20
2018-06-08T21:06:07.350Z,30.90
2018-06-08T21:08:35.413Z,31.80
2018-06-08T21:11:03.461Z,31.53
2018-06-08T21:13:31.657Z,30.90
2018-06-08T21:15:59.723Z,28.63
2018-06-08T21:18:27.769Z,29.17
2018-06-08T21:20:55.818Z,30.43
2018-06-08T21:23:23.878Z,33.27
2018-06-08T21:25:51.953Z,32.43
2018-06-08T21:28:19.960Z,31.17
2018-06-08T21:30:47.974Z,29.50
2018-06-08T21:33:16.046Z,33.90
2018-06-08T21:35:44.069Z,34.93
2018-06-08T21:38:12.156Z,33.10
2018-06-08T21:40:40.209Z,31.37
2018-06-08T21:43:08.207Z,36.90
2018-06-08T21:45:36.225Z,32.10
2018-06-08T21:48:04.534Z,36.13
2018-06-08T21:50:32.609Z,37.33
2018-06-08T21:53:00.642Z,31.73
2018-06-08T21:55:28.754Z,34.27
2018-06-08T21:57:56.722Z,34.50
2018-06-08T22:00:24.773Z,37.73
2018-06-08T22:02:52.807Z,33.07
2018-06-08T22:05:20.831Z,37.60
2018-06-08T22:07:48.868Z,33.40
2018-06-08T22:10:16.901Z,31.87
2018-06-08T22:12:44.919Z,33.33
2018-06-08T22:15:12.997Z,38.50
2018-06-08T22:17:41.033Z,37.60
2018-06-08T22:20:09.053Z,29.47
2018-06-08T22:22:39.068Z,33.90
2018-06-08T22:25:07.167Z,30.17
2018-06-08T22:27:35.193Z,32.00
2018-06-08T22:30:03.228Z,34.27
2018-06-08T22:32:31.251Z,26.93
2018-06-08T22:34:59.337Z,29.30
2018-06-08T22:37:27.397Z,28.03
2018-06-08T22:39:55.518Z,33.47
2018-06-08T22:42:23.567Z,32.67
2018-06-08T22:44:51.569Z,32.60
2018-06-08T22:47:19.629Z,28.10
2018-06-08T22:49:47.651Z,31.97
2018-06-08T22:52:15.663Z,29.43
2018-06-08T22:54:43.821Z,27.40
2018-06-08T22:57:11.884Z,29.10
2018-06-08T22:59:39.898Z,28.33
2018-06-08T23:02:07.929Z,27.30
2018-06-08T23:04:35.951Z,24.83
2018-06-08T23:07:03.987Z,29.70
2018-06-08T23:09:32.001Z,27.23
2018-06-08T23:12:00.055Z,24.43
2018-06-08T23:14:28.917Z,26.50
2018-06-08T23:16:57.134Z,30.57
2018-06-08T23:19:25.198Z,25.33
2018-06-08T23:21:53.281Z,26.50
2018-06-08T23:24:21.587Z,27.70
2018-06-08T23:26:49.639Z,23.30
2018-06-08T23:29:17.686Z,25.73
2018-06-08T23:31:46.033Z,24.80
2018-06-08T23:34:14.060Z,24.10
2018-06-08T23:36:42.072Z,29.17
2018-06-08T23:39:10.085Z,26.00
2018-06-08T23:41:38.137Z,25.83
2018-06-08T23:44:06.150Z,26.90
2018-06-08T23:46:34.184Z,24.67
2018-06-08T23:49:02.218Z,31.60
2018-06-08T23:51:30.220Z,25.93
2018-06-08T23:54:23.599Z,26.40
2018-06-08T23:56:54.957Z,31.00
2018-06-08T23:59:23.047Z,25.57
